sensor_id;sensor_type;location;lat;lon;timestamp;temperature;humidity
9083;DHT22;4577;48.704;9.000;2024-03-02T00:00:01;7.70;96.20
9083;DHT22;4577;48.704;9.000;2024-03-02T00:02:43;7.70;96.00
9083;DHT22;4577;48.704;9.000;2024-03-02T00:05:18;7.70;96.10
9083;DHT22;4577;48.704;9.000;2024-03-02T00:07:46;7.80;96.20
9083;DHT22;4577;48.704;9.000;2024-03-02T00:10:16;7.80;96.00
9083;DHT22;4577;48.704;9.000;2024-03-02T00:12:42;7.90;96.00
9083;DHT22;4577;48.704;9.000;2024-03-02T00:17:57;8.10;95.70
9083;DHT22;4577;48.704;9.000;2024-03-02T00:20:24;7.90;95.70
9083;DHT22;4577;48.704;9.000;2024-03-02T00:23:00;7.80;95.60
9083;DHT22;4577;48.704;9.000;2024-03-02T00:25:27;7.70;95.50
9083;DHT22;4577;48.704;9.000;2024-03-02T00:27:52;7.60;95.70
9083;DHT22;4577;48.704;9.000;2024-03-02T00:33:10;7.50;95.80
9083;DHT22;4577;48.704;9.000;2024-03-02T00:35:36;7.50;95.80
9083;DHT22;4577;48.704;9.000;2024-03-02T00:38:05;8.00;98.20
9083;DHT22;4577;48.704;9.000;2024-03-02T00:40:31;7.50;96.20
9083;DHT22;4577;48.704;9.000;2024-03-02T00:42:57;7.50;96.20
9083;DHT22;4577;48.704;9.000;2024-03-02T00:45:24;7.30;96.20
9083;DHT22;4577;48.704;9.000;2024-03-02T00:47:51;7.40;96.20
9083;DHT22;4577;48.704;9.000;2024-03-02T00:50:17;7.40;96.40
9083;DHT22;4577;48.704;9.000;2024-03-02T00:52:43;7.50;96.40
9083;DHT22;4577;48.704;9.000;2024-03-02T00:55:09;7.50;96.50
9083;DHT22;4577;48.704;9.000;2024-03-02T00:57:35;7.40;96.40
9083;DHT22;4577;48.704;9.000;2024-03-02T01:00:01;7.50;96.40
9083;DHT22;4577;48.704;9.000;2024-03-02T01:02:28;7.40;96.60
9083;DHT22;4577;48.704;9.000;2024-03-02T01:04:54;7.40;96.80
9083;DHT22;4577;48.704;9.000;2024-03-02T01:07:20;7.40;96.80
9083;DHT22;4577;48.704;9.000;2024-03-02T01:09:46;7.40;96.90
9083;DHT22;4577;48.704;9.000;2024-03-02T01:12:11;7.40;96.90
9083;DHT22;4577;48.704;9.000;2024-03-02T01:14:37;7.50;96.90
9083;DHT22;4577;48.704;9.000;2024-03-02T01:17:02;7.50;96.90
9083;DHT22;4577;48.704;9.000;2024-03-02T01:19:30;7.40;96.80
9083;DHT22;4577;48.704;9.000;2024-03-02T01:21:55;7.50;97.00
9083;DHT22;4577;48.704;9.000;2024-03-02T01:24:22;7.50;97.00
9083;DHT22;4577;48.704;9.000;2024-03-02T01:26:47;7.50;97.00
9083;DHT22;4577;48.704;9.000;2024-03-02T01:29:13;7.50;97.10
9083;DHT22;4577;48.704;9.000;2024-03-02T01:31:39;7.50;96.80
9083;DHT22;4577;48.704;9.000;2024-03-02T01:34:08;7.50;97.00
9083;DHT22;4577;48.704;9.000;2024-03-02T01:36:33;7.50;97.00
9083;DHT22;4577;48.704;9.000;2024-03-02T01:38:59;7.50;97.00
9083;DHT22;4577;48.704;9.000;2024-03-02T01:41:25;7.50;97.00
9083;DHT22;4577;48.704;9.000;2024-03-02T01:43:51;10.30;97.70
9083;DHT22;4577;48.704;9.000;2024-03-02T01:46:16;7.50;97.00
9083;DHT22;4577;48.704;9.000;2024-03-02T01:48:42;7.40;97.20
9083;DHT22;4577;48.704;9.000;2024-03-02T01:51:08;7.40;97.20
9083;DHT22;4577;48.704;9.000;2024-03-02T01:53:34;7.40;97.30
9083;DHT22;4577;48.704;9.000;2024-03-02T01:56:00;7.40;97.40
9083;DHT22;4577;48.704;9.000;2024-03-02T01:58:27;7.30;97.60
9083;DHT22;4577;48.704;9.000;2024-03-02T02:00:53;7.30;97.70
9083;DHT22;4577;48.704;9.000;2024-03-02T02:03:18;7.20;97.80
9083;DHT22;4577;48.704;9.000;2024-03-02T02:05:44;7.20;98.00
9083;DHT22;4577;48.704;9.000;2024-03-02T02:08:11;7.20;98.00
9083;DHT22;4577;48.704;9.000;2024-03-02T02:10:39;7.20;97.80
9083;DHT22;4577;48.704;9.000;2024-03-02T02:13:05;7.20;98.00
9083;DHT22;4577;48.704;9.000;2024-03-02T02:15:31;7.20;97.90
9083;DHT22;4577;48.704;9.000;2024-03-02T02:17:58;7.20;99.90
9083;DHT22;4577;48.704;9.000;2024-03-02T02:20:24;7.10;98.10
9083;DHT22;4577;48.704;9.000;2024-03-02T02:22:57;7.20;98.20
9083;DHT22;4577;48.704;9.000;2024-03-02T02:25:24;7.10;98.10
9083;DHT22;4577;48.704;9.000;2024-03-02T02:27:49;7.10;98.30
9083;DHT22;4577;48.704;9.000;2024-03-02T02:30:29;7.00;98.40
9083;DHT22;4577;48.704;9.000;2024-03-02T02:32:55;7.10;98.40
9083;DHT22;4577;48.704;9.000;2024-03-02T02:35:21;7.10;98.20
9083;DHT22;4577;48.704;9.000;2024-03-02T02:37:47;7.00;98.20
9083;DHT22;4577;48.704;9.000;2024-03-02T02:42:40;6.90;98.80
9083;DHT22;4577;48.704;9.000;2024-03-02T02:45:06;6.80;98.90
9083;DHT22;4577;48.704;9.000;2024-03-02T02:50:02;8.10;98.30
9083;DHT22;4577;48.704;9.000;2024-03-02T02:52:36;7.10;97.50
9083;DHT22;4577;48.704;9.000;2024-03-02T02:55:06;7.00;97.60
9083;DHT22;4577;48.704;9.000;2024-03-02T02:57:33;7.10;97.60
9083;DHT22;4577;48.704;9.000;2024-03-02T03:00:05;6.70;99.30
9083;DHT22;4577;48.704;9.000;2024-03-02T03:05:01;7.00;98.80
9083;DHT22;4577;48.704;9.000;2024-03-02T03:14:45;6.80;99.50
9083;DHT22;4577;48.704;9.000;2024-03-02T03:17:10;7.10;98.30
9083;DHT22;4577;48.704;9.000;2024-03-02T03:19:38;7.30;99.60
9083;DHT22;4577;48.704;9.000;2024-03-02T03:22:04;7.50;98.50
9083;DHT22;4577;48.704;9.000;2024-03-02T03:26:56;7.20;99.10
9083;DHT22;4577;48.704;9.000;2024-03-02T03:31:47;6.80;97.60
9083;DHT22;4577;48.704;9.000;2024-03-02T03:34:13;6.50;98.70
9083;DHT22;4577;48.704;9.000;2024-03-02T03:36:41;6.70;97.10
9083;DHT22;4577;48.704;9.000;2024-03-02T03:39:07;6.20;98.90
9083;DHT22;4577;48.704;9.000;2024-03-02T03:56:09;6.60;97.90
9083;DHT22;4577;48.704;9.000;2024-03-02T03:58:35;6.90;97.40
9083;DHT22;4577;48.704;9.000;2024-03-02T04:03:26;6.60;98.90
9083;DHT22;4577;48.704;9.000;2024-03-02T04:05:52;6.60;98.50
9083;DHT22;4577;48.704;9.000;2024-03-02T04:10:44;6.40;98.80
9083;DHT22;4577;48.704;9.000;2024-03-02T04:15:35;6.30;99.10
9083;DHT22;4577;48.704;9.000;2024-03-02T04:20:27;6.30;97.30
9083;DHT22;4577;48.704;9.000;2024-03-02T04:25:18;6.30;98.00
9083;DHT22;4577;48.704;9.000;2024-03-02T04:27:45;5.70;98.50
9083;DHT22;4577;48.704;9.000;2024-03-02T04:30:11;5.80;96.80
9083;DHT22;4577;48.704;9.000;2024-03-02T04:37:32;6.10;98.30
9083;DHT22;4577;48.704;9.000;2024-03-02T04:39:57;5.80;98.20
9083;DHT22;4577;48.704;9.000;2024-03-02T04:42:23;6.30;98.00
9083;DHT22;4577;48.704;9.000;2024-03-02T04:49:42;5.80;99.00
9083;DHT22;4577;48.704;9.000;2024-03-02T04:57:19;6.40;98.70
9083;DHT22;4577;48.704;9.000;2024-03-02T05:04:39;6.70;98.30
9083;DHT22;4577;48.704;9.000;2024-03-02T05:07:05;6.50;98.40
9083;DHT22;4577;48.704;9.000;2024-03-02T05:09:31;6.40;99.40
9083;DHT22;4577;48.704;9.000;2024-03-02T05:15:01;6.70;98.90
9083;DHT22;4577;48.704;9.000;2024-03-02T05:19:53;6.10;99.20
9083;DHT22;4577;48.704;9.000;2024-03-02T05:39:23;6.10;98.80
9083;DHT22;4577;48.704;9.000;2024-03-02T05:44:14;6.10;99.10
9083;DHT22;4577;48.704;9.000;2024-03-02T05:46:41;6.10;99.30
9083;DHT22;4577;48.704;9.000;2024-03-02T05:49:07;6.60;97.50
9083;DHT22;4577;48.704;9.000;2024-03-02T06:11:21;5.70;99.90
9083;DHT22;4577;48.704;9.000;2024-03-02T06:18:39;6.00;99.90
9083;DHT22;4577;48.704;9.000;2024-03-02T06:21:04;6.10;99.90
9083;DHT22;4577;48.704;9.000;2024-03-02T06:28:22;6.30;99.00
9083;DHT22;4577;48.704;9.000;2024-03-02T06:33:14;6.00;99.90
9083;DHT22;4577;48.704;9.000;2024-03-02T06:35:40;6.50;99.90
9083;DHT22;4577;48.704;9.000;2024-03-02T06:38:06;6.50;99.90
9083;DHT22;4577;48.704;9.000;2024-03-02T06:40:32;6.80;99.90
9083;DHT22;4577;48.704;9.000;2024-03-02T06:42:57;6.40;99.90
9083;DHT22;4577;48.704;9.000;2024-03-02T06:47:49;6.40;99.80
9083;DHT22;4577;48.704;9.000;2024-03-02T06:52:41;6.40;99.70
9083;DHT22;4577;48.704;9.000;2024-03-02T06:55:07;7.40;99.90
9083;DHT22;4577;48.704;9.000;2024-03-02T07:02:25;6.80;99.40
9083;DHT22;4577;48.704;9.000;2024-03-02T07:04:54;6.70;99.90
9083;DHT22;4577;48.704;9.000;2024-03-02T07:07:19;6.60;99.90
9083;DHT22;4577;48.704;9.000;2024-03-02T07:22:14;6.20;99.90
9083;DHT22;4577;48.704;9.000;2024-03-02T07:24:43;6.60;98.70
9083;DHT22;4577;48.704;9.000;2024-03-02T07:27:10;6.60;99.10
9083;DHT22;4577;48.704;9.000;2024-03-02T07:29:36;6.50;99.90
9083;DHT22;4577;48.704;9.000;2024-03-02T07:41:46;6.40;99.90
9083;DHT22;4577;48.704;9.000;2024-03-02T07:44:12;6.50;99.90
9083;DHT22;4577;48.704;9.000;2024-03-02T07:46:42;6.60;99.50
9083;DHT22;4577;48.704;9.000;2024-03-02T07:49:08;6.40;99.90
9083;DHT22;4577;48.704;9.000;2024-03-02T07:51:34;6.50;99.90
9083;DHT22;4577;48.704;9.000;2024-03-02T07:54:00;6.40;99.90
9083;DHT22;4577;48.704;9.000;2024-03-02T07:58:52;6.50;99.90
9083;DHT22;4577;48.704;9.000;2024-03-02T08:01:18;6.40;99.60
9083;DHT22;4577;48.704;9.000;2024-03-02T08:08:41;6.80;99.90
9083;DHT22;4577;48.704;9.000;2024-03-02T08:15:59;7.40;99.90
9083;DHT22;4577;48.704;9.000;2024-03-02T08:18:25;6.60;99.90
9083;DHT22;4577;48.704;9.000;2024-03-02T08:20:50;6.90;99.90
9083;DHT22;4577;48.704;9.000;2024-03-02T08:23:16;6.80;98.90
9083;DHT22;4577;48.704;9.000;2024-03-02T08:25:42;6.70;99.90
9083;DHT22;4577;48.704;9.000;2024-03-02T08:28:08;6.90;99.10
9083;DHT22;4577;48.704;9.000;2024-03-02T08:30:34;7.00;99.90
9083;DHT22;4577;48.704;9.000;2024-03-02T08:35:26;7.10;99.80
9083;DHT22;4577;48.704;9.000;2024-03-02T08:37:51;6.90;99.20
9083;DHT22;4577;48.704;9.000;2024-03-02T08:40:17;7.30;97.10
9083;DHT22;4577;48.704;9.000;2024-03-02T08:42:43;7.20;97.40
9083;DHT22;4577;48.704;9.000;2024-03-02T08:45:09;7.30;97.20
9083;DHT22;4577;48.704;9.000;2024-03-02T08:47:34;7.40;97.50
9083;DHT22;4577;48.704;9.000;2024-03-02T08:50:00;7.40;97.60
9083;DHT22;4577;48.704;9.000;2024-03-02T08:52:26;7.40;97.00
9083;DHT22;4577;48.704;9.000;2024-03-02T08:54:52;7.50;97.40
9083;DHT22;4577;48.704;9.000;2024-03-02T08:57:18;7.50;97.60
9083;DHT22;4577;48.704;9.000;2024-03-02T08:59:44;7.60;97.00
9083;DHT22;4577;48.704;9.000;2024-03-02T09:02:10;7.90;98.60
9083;DHT22;4577;48.704;9.000;2024-03-02T09:04:36;7.80;96.70
9083;DHT22;4577;48.704;9.000;2024-03-02T09:07:01;7.80;96.60
9083;DHT22;4577;48.704;9.000;2024-03-02T09:09:27;7.80;96.20
9083;DHT22;4577;48.704;9.000;2024-03-02T09:11:53;7.80;96.10
9083;DHT22;4577;48.704;9.000;2024-03-02T09:14:20;7.80;96.20
9083;DHT22;4577;48.704;9.000;2024-03-02T09:16:46;7.90;96.30
9083;DHT22;4577;48.704;9.000;2024-03-02T09:19:12;8.00;96.30
9083;DHT22;4577;48.704;9.000;2024-03-02T09:21:38;8.00;96.50
9083;DHT22;4577;48.704;9.000;2024-03-02T09:24:04;8.10;96.20
9083;DHT22;4577;48.704;9.000;2024-03-02T09:26:29;8.20;96.40
9083;DHT22;4577;48.704;9.000;2024-03-02T09:28:55;8.20;96.30
9083;DHT22;4577;48.704;9.000;2024-03-02T09:33:47;8.40;95.10
9083;DHT22;4577;48.704;9.000;2024-03-02T09:36:19;8.70;93.90
9083;DHT22;4577;48.704;9.000;2024-03-02T09:38:45;8.60;95.20
9083;DHT22;4577;48.704;9.000;2024-03-02T09:41:12;8.70;93.70
9083;DHT22;4577;48.704;9.000;2024-03-02T09:43:38;8.80;93.20
9083;DHT22;4577;48.704;9.000;2024-03-02T09:46:03;9.00;93.10
9083;DHT22;4577;48.704;9.000;2024-03-02T09:48:29;9.30;93.10
9083;DHT22;4577;48.704;9.000;2024-03-02T09:50:55;9.30;93.30
9083;DHT22;4577;48.704;9.000;2024-03-02T09:53:22;9.40;92.80
9083;DHT22;4577;48.704;9.000;2024-03-02T09:55:48;9.30;92.80
9083;DHT22;4577;48.704;9.000;2024-03-02T09:58:14;9.40;93.10
9083;DHT22;4577;48.704;9.000;2024-03-02T10:00:40;9.50;92.60
9083;DHT22;4577;48.704;9.000;2024-03-02T10:03:05;9.60;92.50
9083;DHT22;4577;48.704;9.000;2024-03-02T10:05:36;9.70;92.20
9083;DHT22;4577;48.704;9.000;2024-03-02T10:08:03;9.70;91.10
9083;DHT22;4577;48.704;9.000;2024-03-02T10:10:39;9.80;91.20
9083;DHT22;4577;48.704;9.000;2024-03-02T10:13:10;9.90;91.40
9083;DHT22;4577;48.704;9.000;2024-03-02T10:15:36;9.90;91.30
9083;DHT22;4577;48.704;9.000;2024-03-02T10:18:09;9.80;91.80
9083;DHT22;4577;48.704;9.000;2024-03-02T10:20:36;9.90;91.20
9083;DHT22;4577;48.704;9.000;2024-03-02T10:23:13;10.10;87.50
9083;DHT22;4577;48.704;9.000;2024-03-02T10:25:39;10.30;86.50
9083;DHT22;4577;48.704;9.000;2024-03-02T10:28:04;10.30;87.60
9083;DHT22;4577;48.704;9.000;2024-03-02T10:30:34;10.30;85.10
9083;DHT22;4577;48.704;9.000;2024-03-02T10:33:01;10.50;84.70
9083;DHT22;4577;48.704;9.000;2024-03-02T10:35:27;10.50;87.30
9083;DHT22;4577;48.704;9.000;2024-03-02T10:37:53;10.50;83.00
9083;DHT22;4577;48.704;9.000;2024-03-02T10:40:22;10.60;83.50
9083;DHT22;4577;48.704;9.000;2024-03-02T10:42:50;10.70;85.20
9083;DHT22;4577;48.704;9.000;2024-03-02T10:45:16;10.70;86.10
9083;DHT22;4577;48.704;9.000;2024-03-02T10:47:44;10.60;85.90
9083;DHT22;4577;48.704;9.000;2024-03-02T10:50:11;10.70;86.60
9083;DHT22;4577;48.704;9.000;2024-03-02T10:52:38;10.80;83.90
9083;DHT22;4577;48.704;9.000;2024-03-02T10:55:11;10.90;84.00
9083;DHT22;4577;48.704;9.000;2024-03-02T10:57:43;10.90;83.60
9083;DHT22;4577;48.704;9.000;2024-03-02T11:00:12;11.10;84.00
9083;DHT22;4577;48.704;9.000;2024-03-02T11:02:44;11.30;82.60
9083;DHT22;4577;48.704;9.000;2024-03-02T11:05:13;11.30;81.80
9083;DHT22;4577;48.704;9.000;2024-03-02T11:07:41;11.40;81.40
9083;DHT22;4577;48.704;9.000;2024-03-02T11:10:08;11.40;81.20
9083;DHT22;4577;48.704;9.000;2024-03-02T11:12:49;11.40;81.90
9083;DHT22;4577;48.704;9.000;2024-03-02T11:15:19;11.40;80.30
9083;DHT22;4577;48.704;9.000;2024-03-02T11:17:46;11.50;79.30
9083;DHT22;4577;48.704;9.000;2024-03-02T11:20:13;11.50;79.70
9083;DHT22;4577;48.704;9.000;2024-03-02T11:22:40;11.50;82.30
9083;DHT22;4577;48.704;9.000;2024-03-02T11:25:26;11.50;80.30
9083;DHT22;4577;48.704;9.000;2024-03-02T11:35:35;12.10;77.70
9083;DHT22;4577;48.704;9.000;2024-03-02T11:38:02;12.10;79.20
9083;DHT22;4577;48.704;9.000;2024-03-02T11:40:29;12.10;77.70
9083;DHT22;4577;48.704;9.000;2024-03-02T11:42:55;12.10;77.30
9083;DHT22;4577;48.704;9.000;2024-03-02T11:45:28;12.10;75.90
9083;DHT22;4577;48.704;9.000;2024-03-02T11:47:55;12.10;75.70
9083;DHT22;4577;48.704;9.000;2024-03-02T11:50:29;12.10;75.90
9083;DHT22;4577;48.704;9.000;2024-03-02T11:52:56;12.10;76.30
9083;DHT22;4577;48.704;9.000;2024-03-02T11:55:27;12.20;74.40
9083;DHT22;4577;48.704;9.000;2024-03-02T11:57:54;12.20;74.10
9083;DHT22;4577;48.704;9.000;2024-03-02T12:00:20;12.20;73.80
9083;DHT22;4577;48.704;9.000;2024-03-02T12:02:48;14.80;77.90
9083;DHT22;4577;48.704;9.000;2024-03-02T12:05:25;12.40;75.40
9083;DHT22;4577;48.704;9.000;2024-03-02T12:07:59;12.40;74.80
9083;DHT22;4577;48.704;9.000;2024-03-02T12:10:28;12.50;72.60
9083;DHT22;4577;48.704;9.000;2024-03-02T12:12:59;12.50;73.20
9083;DHT22;4577;48.704;9.000;2024-03-02T12:15:28;12.60;73.00
9083;DHT22;4577;48.704;9.000;2024-03-02T12:17:58;12.70;73.50
9083;DHT22;4577;48.704;9.000;2024-03-02T12:20:26;12.80;72.90
9083;DHT22;4577;48.704;9.000;2024-03-02T12:22:53;12.80;72.90
9083;DHT22;4577;48.704;9.000;2024-03-02T12:25:20;12.80;73.60
9083;DHT22;4577;48.704;9.000;2024-03-02T12:27:49;12.90;72.10
9083;DHT22;4577;48.704;9.000;2024-03-02T12:30:19;12.80;72.00
9083;DHT22;4577;48.704;9.000;2024-03-02T12:32:45;12.90;72.40
9083;DHT22;4577;48.704;9.000;2024-03-02T12:35:11;12.80;70.60
9083;DHT22;4577;48.704;9.000;2024-03-02T12:37:47;12.70;71.50
9083;DHT22;4577;48.704;9.000;2024-03-02T12:40:14;12.90;71.90
9083;DHT22;4577;48.704;9.000;2024-03-02T12:42:40;15.70;74.50
9083;DHT22;4577;48.704;9.000;2024-03-02T12:45:08;13.10;71.50
9083;DHT22;4577;48.704;9.000;2024-03-02T12:47:35;13.10;69.30
9083;DHT22;4577;48.704;9.000;2024-03-02T12:50:01;13.20;72.60
9083;DHT22;4577;48.704;9.000;2024-03-02T12:52:27;13.20;68.90
9083;DHT22;4577;48.704;9.000;2024-03-02T12:54:54;13.10;69.80
9083;DHT22;4577;48.704;9.000;2024-03-02T12:57:27;13.10;68.70
9083;DHT22;4577;48.704;9.000;2024-03-02T13:00:04;13.30;67.20
9083;DHT22;4577;48.704;9.000;2024-03-02T13:02:40;13.30;68.10
9083;DHT22;4577;48.704;9.000;2024-03-02T13:05:07;13.50;68.10
9083;DHT22;4577;48.704;9.000;2024-03-02T13:07:37;13.50;68.10
9083;DHT22;4577;48.704;9.000;2024-03-02T13:10:04;13.60;67.00
9083;DHT22;4577;48.704;9.000;2024-03-02T13:12:30;13.70;67.70
9083;DHT22;4577;48.704;9.000;2024-03-02T13:14:57;14.00;64.70
9083;DHT22;4577;48.704;9.000;2024-03-02T13:17:23;13.90;64.80
9083;DHT22;4577;48.704;9.000;2024-03-02T13:19:57;13.80;64.90
9083;DHT22;4577;48.704;9.000;2024-03-02T13:22:23;13.70;64.10
9083;DHT22;4577;48.704;9.000;2024-03-02T13:24:50;13.70;62.70
9083;DHT22;4577;48.704;9.000;2024-03-02T13:27:16;13.70;62.10
9083;DHT22;4577;48.704;9.000;2024-03-02T13:29:48;13.60;64.50
9083;DHT22;4577;48.704;9.000;2024-03-02T13:32:16;13.50;61.90
9083;DHT22;4577;48.704;9.000;2024-03-02T13:34:42;13.50;62.30
9083;DHT22;4577;48.704;9.000;2024-03-02T13:37:09;13.60;62.00
9083;DHT22;4577;48.704;9.000;2024-03-02T13:39:35;13.50;61.00
9083;DHT22;4577;48.704;9.000;2024-03-02T13:42:08;13.50;60.70
9083;DHT22;4577;48.704;9.000;2024-03-02T13:44:34;13.30;62.10
9083;DHT22;4577;48.704;9.000;2024-03-02T13:47:00;13.30;60.70
9083;DHT22;4577;48.704;9.000;2024-03-02T13:49:26;13.40;60.80
9083;DHT22;4577;48.704;9.000;2024-03-02T13:52:03;13.30;61.00
9083;DHT22;4577;48.704;9.000;2024-03-02T13:54:39;13.40;60.80
9083;DHT22;4577;48.704;9.000;2024-03-02T13:57:05;13.30;60.40
9083;DHT22;4577;48.704;9.000;2024-03-02T13:59:31;13.30;60.50
9083;DHT22;4577;48.704;9.000;2024-03-02T14:01:57;13.30;61.20
9083;DHT22;4577;48.704;9.000;2024-03-02T14:04:22;13.30;61.10
9083;DHT22;4577;48.704;9.000;2024-03-02T14:06:48;13.40;61.60
9083;DHT22;4577;48.704;9.000;2024-03-02T14:09:14;13.40;61.10
9083;DHT22;4577;48.704;9.000;2024-03-02T14:11:40;13.50;60.80
9083;DHT22;4577;48.704;9.000;2024-03-02T14:14:06;13.50;60.50
9083;DHT22;4577;48.704;9.000;2024-03-02T14:16:31;13.50;60.90
9083;DHT22;4577;48.704;9.000;2024-03-02T14:18:57;13.60;59.80
9083;DHT22;4577;48.704;9.000;2024-03-02T14:21:24;13.60;60.70
9083;DHT22;4577;48.704;9.000;2024-03-02T14:23:50;13.60;61.30
9083;DHT22;4577;48.704;9.000;2024-03-02T14:26:16;13.70;62.10
9083;DHT22;4577;48.704;9.000;2024-03-02T14:28:41;13.80;63.50
9083;DHT22;4577;48.704;9.000;2024-03-02T14:31:07;13.80;60.20
9083;DHT22;4577;48.704;9.000;2024-03-02T14:33:33;13.90;60.40
9083;DHT22;4577;48.704;9.000;2024-03-02T14:35:59;14.00;59.20
9083;DHT22;4577;48.704;9.000;2024-03-02T14:38:25;14.00;59.20
9083;DHT22;4577;48.704;9.000;2024-03-02T14:40:51;14.10;56.90
9083;DHT22;4577;48.704;9.000;2024-03-02T14:43:16;14.10;57.80
9083;DHT22;4577;48.704;9.000;2024-03-02T14:45:43;14.20;58.50
9083;DHT22;4577;48.704;9.000;2024-03-02T14:48:08;14.30;59.60
9083;DHT22;4577;48.704;9.000;2024-03-02T14:50:34;14.40;57.60
9083;DHT22;4577;48.704;9.000;2024-03-02T14:53:00;14.30;58.40
9083;DHT22;4577;48.704;9.000;2024-03-02T14:55:26;14.40;58.30
9083;DHT22;4577;48.704;9.000;2024-03-02T14:57:52;14.40;58.90
9083;DHT22;4577;48.704;9.000;2024-03-02T15:00:18;14.50;58.90
9083;DHT22;4577;48.704;9.000;2024-03-02T15:02:43;14.60;59.30
9083;DHT22;4577;48.704;9.000;2024-03-02T15:05:09;14.70;60.20
9083;DHT22;4577;48.704;9.000;2024-03-02T15:07:35;14.80;59.10
9083;DHT22;4577;48.704;9.000;2024-03-02T15:10:01;14.90;59.10
9083;DHT22;4577;48.704;9.000;2024-03-02T15:12:26;14.90;59.70
9083;DHT22;4577;48.704;9.000;2024-03-02T15:14:52;14.90;58.80
9083;DHT22;4577;48.704;9.000;2024-03-02T15:17:18;14.80;58.00
9083;DHT22;4577;48.704;9.000;2024-03-02T15:19:44;14.80;58.50
9083;DHT22;4577;48.704;9.000;2024-03-02T15:22:11;14.80;58.90
9083;DHT22;4577;48.704;9.000;2024-03-02T15:24:37;14.80;58.40
9083;DHT22;4577;48.704;9.000;2024-03-02T15:27:04;14.70;58.80
9083;DHT22;4577;48.704;9.000;2024-03-02T15:29:31;14.60;59.30
9083;DHT22;4577;48.704;9.000;2024-03-02T15:31:57;14.70;59.90
9083;DHT22;4577;48.704;9.000;2024-03-02T15:34:23;14.60;58.40
9083;DHT22;4577;48.704;9.000;2024-03-02T15:36:49;14.50;58.50
9083;DHT22;4577;48.704;9.000;2024-03-02T15:39:15;14.50;58.50
9083;DHT22;4577;48.704;9.000;2024-03-02T15:41:44;14.40;57.80
9083;DHT22;4577;48.704;9.000;2024-03-02T15:44:10;14.40;99.90
9083;DHT22;4577;48.704;9.000;2024-03-02T15:46:36;12.60;99.90
9083;DHT22;4577;48.704;9.000;2024-03-02T15:49:02;11.80;99.90
9083;DHT22;4577;48.704;9.000;2024-03-02T15:51:28;11.60;99.90
9083;DHT22;4577;48.704;9.000;2024-03-02T15:53:54;10.70;99.90
9083;DHT22;4577;48.704;9.000;2024-03-02T15:56:20;10.80;99.90
9083;DHT22;4577;48.704;9.000;2024-03-02T15:58:46;10.70;99.90
9083;DHT22;4577;48.704;9.000;2024-03-02T16:01:12;10.50;99.90
9083;DHT22;4577;48.704;9.000;2024-03-02T16:03:38;10.20;99.90
9083;DHT22;4577;48.704;9.000;2024-03-02T16:06:04;10.10;99.90
9083;DHT22;4577;48.704;9.000;2024-03-02T16:08:30;9.80;99.90
9083;DHT22;4577;48.704;9.000;2024-03-02T16:10:56;9.90;99.90
9083;DHT22;4577;48.704;9.000;2024-03-02T16:13:25;9.90;99.90
9083;DHT22;4577;48.704;9.000;2024-03-02T16:15:50;9.70;99.90
9083;DHT22;4577;48.704;9.000;2024-03-02T16:18:16;9.40;99.90
9083;DHT22;4577;48.704;9.000;2024-03-02T16:20:41;9.10;99.90
9083;DHT22;4577;48.704;9.000;2024-03-02T16:23:07;8.80;99.90
9083;DHT22;4577;48.704;9.000;2024-03-02T16:25:33;8.80;99.90
9083;DHT22;4577;48.704;9.000;2024-03-02T16:28:01;9.00;99.90
9083;DHT22;4577;48.704;9.000;2024-03-02T16:30:28;8.70;99.90
9083;DHT22;4577;48.704;9.000;2024-03-02T16:32:54;8.70;99.90
9083;DHT22;4577;48.704;9.000;2024-03-02T16:35:20;8.90;99.90
9083;DHT22;4577;48.704;9.000;2024-03-02T16:37:46;9.10;99.90
9083;DHT22;4577;48.704;9.000;2024-03-02T16:40:12;9.00;99.90
9083;DHT22;4577;48.704;9.000;2024-03-02T16:42:39;9.10;99.90
9083;DHT22;4577;48.704;9.000;2024-03-02T16:45:05;9.20;99.90
9083;DHT22;4577;48.704;9.000;2024-03-02T16:47:30;9.10;99.90
9083;DHT22;4577;48.704;9.000;2024-03-02T16:49:56;9.20;99.90
9083;DHT22;4577;48.704;9.000;2024-03-02T16:52:26;9.20;99.90
9083;DHT22;4577;48.704;9.000;2024-03-02T16:54:53;9.00;99.90
9083;DHT22;4577;48.704;9.000;2024-03-02T16:57:19;9.00;99.90
9083;DHT22;4577;48.704;9.000;2024-03-02T16:59:46;9.00;99.90
9083;DHT22;4577;48.704;9.000;2024-03-02T17:02:12;9.10;99.90
9083;DHT22;4577;48.704;9.000;2024-03-02T17:04:39;9.20;99.90
9083;DHT22;4577;48.704;9.000;2024-03-02T17:07:05;9.30;99.90
9083;DHT22;4577;48.704;9.000;2024-03-02T17:09:31;9.40;99.90
9083;DHT22;4577;48.704;9.000;2024-03-02T17:11:57;9.40;99.90
9083;DHT22;4577;48.704;9.000;2024-03-02T17:14:23;9.40;99.90
9083;DHT22;4577;48.704;9.000;2024-03-02T17:16:50;9.30;99.90
9083;DHT22;4577;48.704;9.000;2024-03-02T17:19:16;9.10;99.90
9083;DHT22;4577;48.704;9.000;2024-03-02T17:21:42;9.10;99.90
9083;DHT22;4577;48.704;9.000;2024-03-02T17:24:08;9.30;99.90
9083;DHT22;4577;48.704;9.000;2024-03-02T17:26:33;9.20;99.90
9083;DHT22;4577;48.704;9.000;2024-03-02T17:28:59;9.60;99.90
9083;DHT22;4577;48.704;9.000;2024-03-02T17:31:25;9.60;99.90
9083;DHT22;4577;48.704;9.000;2024-03-02T17:33:50;9.70;99.90
9083;DHT22;4577;48.704;9.000;2024-03-02T17:36:16;9.80;99.90
9083;DHT22;4577;48.704;9.000;2024-03-02T17:38:42;9.50;99.90
9083;DHT22;4577;48.704;9.000;2024-03-02T17:41:08;9.60;99.90
9083;DHT22;4577;48.704;9.000;2024-03-02T17:43:37;9.60;99.90
9083;DHT22;4577;48.704;9.000;2024-03-02T17:46:03;9.20;99.90
9083;DHT22;4577;48.704;9.000;2024-03-02T17:48:29;9.40;99.90
9083;DHT22;4577;48.704;9.000;2024-03-02T17:50:54;9.40;99.90
9083;DHT22;4577;48.704;9.000;2024-03-02T17:53:20;9.40;99.90
9083;DHT22;4577;48.704;9.000;2024-03-02T17:55:46;9.60;99.90
9083;DHT22;4577;48.704;9.000;2024-03-02T17:58:12;9.60;99.90
9083;DHT22;4577;48.704;9.000;2024-03-02T18:00:38;9.70;99.90
9083;DHT22;4577;48.704;9.000;2024-03-02T18:03:05;9.70;99.90
9083;DHT22;4577;48.704;9.000;2024-03-02T18:05:31;9.80;99.90
9083;DHT22;4577;48.704;9.000;2024-03-02T18:07:57;9.60;99.90
9083;DHT22;4577;48.704;9.000;2024-03-02T18:10:22;9.40;99.90
9083;DHT22;4577;48.704;9.000;2024-03-02T18:12:48;9.50;99.90
9083;DHT22;4577;48.704;9.000;2024-03-02T18:15:14;9.80;99.90
9083;DHT22;4577;48.704;9.000;2024-03-02T18:17:40;9.70;99.90
9083;DHT22;4577;48.704;9.000;2024-03-02T18:20:06;9.90;99.90
9083;DHT22;4577;48.704;9.000;2024-03-02T18:22:34;10.00;99.90
9083;DHT22;4577;48.704;9.000;2024-03-02T18:25:00;10.10;99.90
9083;DHT22;4577;48.704;9.000;2024-03-02T18:27:26;9.90;99.90
9083;DHT22;4577;48.704;9.000;2024-03-02T18:29:52;10.00;99.90
9083;DHT22;4577;48.704;9.000;2024-03-02T18:32:19;9.90;99.90
9083;DHT22;4577;48.704;9.000;2024-03-02T18:34:45;10.10;99.90
9083;DHT22;4577;48.704;9.000;2024-03-02T18:37:12;10.00;99.90
9083;DHT22;4577;48.704;9.000;2024-03-02T18:39:38;10.20;99.90
9083;DHT22;4577;48.704;9.000;2024-03-02T18:42:04;9.70;99.90
9083;DHT22;4577;48.704;9.000;2024-03-02T18:44:30;9.80;99.90
9083;DHT22;4577;48.704;9.000;2024-03-02T18:46:56;10.10;99.90
9083;DHT22;4577;48.704;9.000;2024-03-02T18:49:21;10.10;99.90
9083;DHT22;4577;48.704;9.000;2024-03-02T18:51:48;10.00;99.90
9083;DHT22;4577;48.704;9.000;2024-03-02T18:54:14;10.20;99.90
9083;DHT22;4577;48.704;9.000;2024-03-02T18:56:41;10.30;99.90
9083;DHT22;4577;48.704;9.000;2024-03-02T18:59:07;10.10;99.90
9083;DHT22;4577;48.704;9.000;2024-03-02T19:01:33;10.40;99.90
9083;DHT22;4577;48.704;9.000;2024-03-02T19:03:59;10.40;99.90
9083;DHT22;4577;48.704;9.000;2024-03-02T19:06:24;10.50;99.90
9083;DHT22;4577;48.704;9.000;2024-03-02T19:08:50;10.50;99.90
9083;DHT22;4577;48.704;9.000;2024-03-02T19:11:16;10.30;99.90
9083;DHT22;4577;48.704;9.000;2024-03-02T19:13:43;10.30;99.90